sensor_id;sensor_type;location;lat;lon;timestamp;pressure;altitude;pressure_sealevel;temperature;humidity
76990;BME280;65924;47.250;11.332;2023-11-21T00:00:25;94422.19;;;6.75;87.09
76990;BME280;65924;47.250;11.332;2023-11-21T00:00:56;94422.86;;;6.75;86.96
76990;BME280;65924;47.250;11.332;2023-11-21T00:01:26;94423.19;;;6.75;87.02
76990;BME280;65924;47.250;11.332;2023-11-21T00:01:58;94424.02;;;6.75;87.05
76990;BME280;65924;47.250;11.332;2023-11-21T00:02:28;94425.02;;;6.75;87.00
76990;BME280;65924;47.250;11.332;2023-11-21T00:02:59;94423.01;;;6.75;86.99
76990;BME280;65924;47.250;11.332;2023-11-21T00:03:32;94426.05;;;6.75;86.87
76990;BME280;65924;47.250;11.332;2023-11-21T00:04:03;94424.20;;;6.75;86.86
76990;BME280;65924;47.250;11.332;2023-11-21T00:04:34;94422.88;;;6.74;86.82
76990;BME280;65924;47.250;11.332;2023-11-21T00:05:04;94422.70;;;6.75;86.84
76990;BME280;65924;47.250;11.332;2023-11-21T00:05:35;94420.67;;;6.75;86.89
76990;BME280;65924;47.250;11.332;2023-11-21T00:06:06;94421.86;;;6.74;86.85
76990;BME280;65924;47.250;11.332;2023-11-21T00:06:39;94420.33;;;6.75;86.91
76990;BME280;65924;47.250;11.332;2023-11-21T00:07:11;94418.83;;;6.74;86.97
76990;BME280;65924;47.250;11.332;2023-11-21T00:07:42;94419.50;;;6.74;87.07
76990;BME280;65924;47.250;11.332;2023-11-21T00:08:13;94417.63;;;6.75;87.12
76990;BME280;65924;47.250;11.332;2023-11-21T00:08:44;94418.64;;;6.75;87.31
76990;BME280;65924;47.250;11.332;2023-11-21T00:09:15;94419.28;;;6.75;87.33
76990;BME280;65924;47.250;11.332;2023-11-21T00:09:49;94420.14;;;6.75;87.22
76990;BME280;65924;47.250;11.332;2023-11-21T00:10:19;94418.42;;;6.75;87.45
76990;BME280;65924;47.250;11.332;2023-11-21T00:10:50;94418.73;;;6.76;87.55
76990;BME280;65924;47.250;11.332;2023-11-21T00:11:21;94417.04;;;6.76;87.57
76990;BME280;65924;47.250;11.332;2023-11-21T00:11:52;94416.81;;;6.77;87.51
76990;BME280;65924;47.250;11.332;2023-11-21T00:12:22;94413.76;;;6.78;87.60
76990;BME280;65924;47.250;11.332;2023-11-21T00:12:53;94413.91;;;6.79;87.62
76990;BME280;65924;47.250;11.332;2023-11-21T00:13:25;94411.16;;;6.79;87.72
76990;BME280;65924;47.250;11.332;2023-11-21T00:13:55;94413.41;;;6.78;87.66
76990;BME280;65924;47.250;11.332;2023-11-21T00:14:26;94414.16;;;6.76;87.60
76990;BME280;65924;47.250;11.332;2023-11-21T00:14:57;94411.27;;;6.77;87.73
76990;BME280;65924;47.250;11.332;2023-11-21T00:15:28;94412.08;;;6.78;87.64
76990;BME280;65924;47.250;11.332;2023-11-21T00:15:59;94409.21;;;6.77;87.47
76990;BME280;65924;47.250;11.332;2023-11-21T00:16:30;94409.56;;;6.77;87.28
76990;BME280;65924;47.250;11.332;2023-11-21T00:17:00;94409.76;;;6.76;87.41
76990;BME280;65924;47.250;11.332;2023-11-21T00:17:31;94407.20;;;6.77;87.39
76990;BME280;65924;47.250;11.332;2023-11-21T00:18:01;94411.41;;;6.78;87.26
76990;BME280;65924;47.250;11.332;2023-11-21T00:18:32;94407.70;;;6.77;87.12
76990;BME280;65924;47.250;11.332;2023-11-21T00:19:02;94407.90;;;6.76;87.27
76990;BME280;65924;47.250;11.332;2023-11-21T00:19:33;94407.77;;;6.76;87.18
76990;BME280;65924;47.250;11.332;2023-11-21T00:20:06;94406.77;;;6.75;87.32
76990;BME280;65924;47.250;11.332;2023-11-21T00:20:37;94409.61;;;6.76;87.53
76990;BME280;65924;47.250;11.332;2023-11-21T00:21:07;94407.21;;;6.76;87.59
76990;BME280;65924;47.250;11.332;2023-11-21T00:21:39;94409.40;;;6.77;87.55
76990;BME280;65924;47.250;11.332;2023-11-21T00:22:10;94414.48;;;6.77;87.49
76990;BME280;65924;47.250;11.332;2023-11-21T00:22:40;94410.09;;;6.77;87.43
76990;BME280;65924;47.250;11.332;2023-11-21T00:23:11;94412.33;;;6.76;87.35
76990;BME280;65924;47.250;11.332;2023-11-21T00:23:42;94408.45;;;6.76;87.37
76990;BME280;65924;47.250;11.332;2023-11-21T00:24:13;94412.88;;;6.75;87.33
76990;BME280;65924;47.250;11.332;2023-11-21T00:24:44;94413.07;;;6.75;87.31
76990;BME280;65924;47.250;11.332;2023-11-21T00:25:15;94410.72;;;6.74;87.37
76990;BME280;65924;47.250;11.332;2023-11-21T00:25:48;94412.60;;;6.74;87.24
76990;BME280;65924;47.250;11.332;2023-11-21T00:26:19;94414.98;;;6.74;87.38
76990;BME280;65924;47.250;11.332;2023-11-21T00:26:51;94412.82;;;6.73;87.08
76990;BME280;65924;47.250;11.332;2023-11-21T00:27:22;94416.04;;;6.73;87.35
76990;BME280;65924;47.250;11.332;2023-11-21T00:27:53;94416.41;;;6.72;87.45
76990;BME280;65924;47.250;11.332;2023-11-21T00:28:25;94416.80;;;6.71;87.61
76990;BME280;65924;47.250;11.332;2023-11-21T00:28:56;94418.13;;;6.72;87.64
76990;BME280;65924;47.250;11.332;2023-11-21T00:29:26;94417.60;;;6.72;87.71
76990;BME280;65924;47.250;11.332;2023-11-21T00:29:57;94420.45;;;6.73;87.56
76990;BME280;65924;47.250;11.332;2023-11-21T00:30:28;94422.51;;;6.72;87.47
76990;BME280;65924;47.250;11.332;2023-11-21T00:30:59;94424.02;;;6.72;87.50
76990;BME280;65924;47.250;11.332;2023-11-21T00:31:29;94422.62;;;6.73;87.72
76990;BME280;65924;47.250;11.332;2023-11-21T00:32:01;94419.26;;;6.73;87.75
76990;BME280;65924;47.250;11.332;2023-11-21T00:32:31;94420.73;;;6.74;87.60
76990;BME280;65924;47.250;11.332;2023-11-21T00:33:02;94422.12;;;6.73;87.67
76990;BME280;65924;47.250;11.332;2023-11-21T00:33:33;94420.79;;;6.73;87.57
76990;BME280;65924;47.250;11.332;2023-11-21T00:34:04;94422.14;;;6.73;87.55
76990;BME280;65924;47.250;11.332;2023-11-21T00:34:35;94420.43;;;6.73;87.52
76990;BME280;65924;47.250;11.332;2023-11-21T00:35:06;94417.42;;;6.72;87.47
76990;BME280;65924;47.250;11.332;2023-11-21T00:35:37;94416.13;;;6.71;87.47
76990;BME280;65924;47.250;11.332;2023-11-21T00:36:08;94420.29;;;6.72;87.55
76990;BME280;65924;47.250;11.332;2023-11-21T00:36:40;94419.67;;;6.71;87.58
76990;BME280;65924;47.250;11.332;2023-11-21T00:37:11;94418.64;;;6.72;87.43
76990;BME280;65924;47.250;11.332;2023-11-21T00:37:42;94419.30;;;6.72;87.42
76990;BME280;65924;47.250;11.332;2023-11-21T00:38:12;94418.99;;;6.71;87.48
76990;BME280;65924;47.250;11.332;2023-11-21T00:38:43;94417.29;;;6.72;87.51
76990;BME280;65924;47.250;11.332;2023-11-21T00:39:13;94419.52;;;6.71;87.48
76990;BME280;65924;47.250;11.332;2023-11-21T00:39:44;94416.98;;;6.71;87.42
76990;BME280;65924;47.250;11.332;2023-11-21T00:40:15;94418.16;;;6.71;87.29
76990;BME280;65924;47.250;11.332;2023-11-21T00:40:46;94418.16;;;6.71;87.29
76990;BME280;65924;47.250;11.332;2023-11-21T00:41:16;94419.01;;;6.71;87.31
76990;BME280;65924;47.250;11.332;2023-11-21T00:41:47;94416.80;;;6.71;87.52
76990;BME280;65924;47.250;11.332;2023-11-21T00:42:18;94420.86;;;6.71;87.60
76990;BME280;65924;47.250;11.332;2023-11-21T00:42:49;94421.34;;;6.72;87.50
76990;BME280;65924;47.250;11.332;2023-11-21T00:43:20;94421.01;;;6.72;87.53
76990;BME280;65924;47.250;11.332;2023-11-21T00:43:50;94421.52;;;6.71;87.50
76990;BME280;65924;47.250;11.332;2023-11-21T00:44:20;94421.54;;;6.72;87.50
76990;BME280;65924;47.250;11.332;2023-11-21T00:44:51;94423.86;;;6.72;87.47
76990;BME280;65924;47.250;11.332;2023-11-21T00:45:22;94422.03;;;6.71;87.47
76990;BME280;65924;47.250;11.332;2023-11-21T00:45:52;94425.09;;;6.71;87.42
76990;BME280;65924;47.250;11.332;2023-11-21T00:46:23;94423.05;;;6.71;87.34
76990;BME280;65924;47.250;11.332;2023-11-21T00:46:54;94425.90;;;6.72;87.36
76990;BME280;65924;47.250;11.332;2023-11-21T00:47:25;94424.09;;;6.71;87.42
76990;BME280;65924;47.250;11.332;2023-11-21T00:47:55;94423.94;;;6.70;87.28
76990;BME280;65924;47.250;11.332;2023-11-21T00:48:26;94426.98;;;6.70;87.32
76990;BME280;65924;47.250;11.332;2023-11-21T00:48:57;94427.65;;;6.71;87.36
76990;BME280;65924;47.250;11.332;2023-11-21T00:49:27;94425.46;;;6.71;87.38
76990;BME280;65924;47.250;11.332;2023-11-21T00:49:58;94425.77;;;6.71;87.29
76990;BME280;65924;47.250;11.332;2023-11-21T00:50:28;94428.20;;;6.70;87.48
76990;BME280;65924;47.250;11.332;2023-11-21T00:51:00;94430.03;;;6.71;87.34
76990;BME280;65924;47.250;11.332;2023-11-21T00:51:31;94429.19;;;6.70;87.50
76990;BME280;65924;47.250;11.332;2023-11-21T00:52:01;94426.65;;;6.71;87.44
76990;BME280;65924;47.250;11.332;2023-11-21T00:52:33;94427.98;;;6.71;87.62
76990;BME280;65924;47.250;11.332;2023-11-21T00:53:03;94431.17;;;6.71;87.78
76990;BME280;65924;47.250;11.332;2023-11-21T00:53:34;94431.28;;;6.72;87.73
76990;BME280;65924;47.250;11.332;2023-11-21T00:54:05;94431.59;;;6.73;87.96
76990;BME280;65924;47.250;11.332;2023-11-21T00:54:37;94430.52;;;6.74;87.90
76990;BME280;65924;47.250;11.332;2023-11-21T00:55:07;94428.46;;;6.74;87.74
76990;BME280;65924;47.250;11.332;2023-11-21T00:55:38;94428.45;;;6.74;87.77
76990;BME280;65924;47.250;11.332;2023-11-21T00:56:12;94429.48;;;6.74;87.73
76990;BME280;65924;47.250;11.332;2023-11-21T00:56:43;94432.67;;;6.75;87.69
76990;BME280;65924;47.250;11.332;2023-11-21T00:57:14;94432.03;;;6.74;87.67
76990;BME280;65924;47.250;11.332;2023-11-21T00:57:44;94434.33;;;6.75;87.73
76990;BME280;65924;47.250;11.332;2023-11-21T00:58:15;94434.20;;;6.75;87.80
76990;BME280;65924;47.250;11.332;2023-11-21T00:58:46;94432.96;;;6.75;87.78
76990;BME280;65924;47.250;11.332;2023-11-21T00:59:20;94435.15;;;6.76;87.92
76990;BME280;65924;47.250;11.332;2023-11-21T00:59:50;94437.13;;;6.76;87.82
76990;BME280;65924;47.250;11.332;2023-11-21T01:00:21;94434.75;;;6.77;87.95
76990;BME280;65924;47.250;11.332;2023-11-21T01:00:52;94433.88;;;6.78;87.87
76990;BME280;65924;47.250;11.332;2023-11-21T01:01:23;94433.19;;;6.78;87.90
76990;BME280;65924;47.250;11.332;2023-11-21T01:01:54;94431.81;;;6.79;87.81
76990;BME280;65924;47.250;11.332;2023-11-21T01:02:25;94433.17;;;6.78;87.82
76990;BME280;65924;47.250;11.332;2023-11-21T01:02:56;94431.63;;;6.79;87.91
76990;BME280;65924;47.250;11.332;2023-11-21T01:03:26;94432.27;;;6.79;87.90
76990;BME280;65924;47.250;11.332;2023-11-21T01:03:57;94430.08;;;6.79;87.91
76990;BME280;65924;47.250;11.332;2023-11-21T01:04:27;94432.24;;;6.80;87.91
76990;BME280;65924;47.250;11.332;2023-11-21T01:04:58;94434.08;;;6.80;87.86
76990;BME280;65924;47.250;11.332;2023-11-21T01:05:29;94434.95;;;6.80;87.96
76990;BME280;65924;47.250;11.332;2023-11-21T01:05:59;94435.77;;;6.80;87.84
76990;BME280;65924;47.250;11.332;2023-11-21T01:06:30;94435.08;;;6.80;87.81
76990;BME280;65924;47.250;11.332;2023-11-21T01:07:01;94432.89;;;6.80;87.82
76990;BME280;65924;47.250;11.332;2023-11-21T01:07:32;94434.04;;;6.81;87.76
76990;BME280;65924;47.250;11.332;2023-11-21T01:08:03;94433.52;;;6.81;87.66
76990;BME280;65924;47.250;11.332;2023-11-21T01:08:34;94432.85;;;6.81;87.89
76990;BME280;65924;47.250;11.332;2023-11-21T01:09:04;94433.84;;;6.82;87.79
76990;BME280;65924;47.250;11.332;2023-11-21T01:09:38;94431.98;;;6.82;87.77
76990;BME280;65924;47.250;11.332;2023-11-21T01:10:09;94432.48;;;6.82;87.74
76990;BME280;65924;47.250;11.332;2023-11-21T01:10:40;94432.80;;;6.82;87.81
76990;BME280;65924;47.250;11.332;2023-11-21T01:11:11;94431.27;;;6.82;87.82
76990;BME280;65924;47.250;11.332;2023-11-21T01:11:45;94431.13;;;6.82;87.83
76990;BME280;65924;47.250;11.332;2023-11-21T01:12:16;94428.11;;;6.82;87.69
76990;BME280;65924;47.250;11.332;2023-11-21T01:12:47;94430.15;;;6.81;87.50
76990;BME280;65924;47.250;11.332;2023-11-21T01:13:20;94428.63;;;6.81;87.62
76990;BME280;65924;47.250;11.332;2023-11-21T01:13:50;94425.84;;;6.79;87.67
76990;BME280;65924;47.250;11.332;2023-11-21T01:14:21;94430.29;;;6.78;87.75
76990;BME280;65924;47.250;11.332;2023-11-21T01:14:51;94428.14;;;6.78;87.80
76990;BME280;65924;47.250;11.332;2023-11-21T01:15:22;94425.59;;;6.78;87.83
76990;BME280;65924;47.250;11.332;2023-11-21T01:15:53;94426.43;;;6.78;87.82
76990;BME280;65924;47.250;11.332;2023-11-21T01:16:24;94425.77;;;6.78;87.88
76990;BME280;65924;47.250;11.332;2023-11-21T01:16:55;94423.20;;;6.78;87.91
76990;BME280;65924;47.250;11.332;2023-11-21T01:17:26;94424.55;;;6.78;87.93
76990;BME280;65924;47.250;11.332;2023-11-21T01:17:57;94421.32;;;6.79;87.88
76990;BME280;65924;47.250;11.332;2023-11-21T01:18:28;94421.83;;;6.79;87.86
76990;BME280;65924;47.250;11.332;2023-11-21T01:18:59;94418.77;;;6.79;87.82
76990;BME280;65924;47.250;11.332;2023-11-21T01:19:30;94420.14;;;6.79;87.77
76990;BME280;65924;47.250;11.332;2023-11-21T01:20:02;94421.17;;;6.78;87.65
76990;BME280;65924;47.250;11.332;2023-11-21T01:20:34;94420.02;;;6.77;87.58
76990;BME280;65924;47.250;11.332;2023-11-21T01:21:05;94419.89;;;6.76;87.62
76990;BME280;65924;47.250;11.332;2023-11-21T01:21:35;94419.42;;;6.76;87.49
76990;BME280;65924;47.250;11.332;2023-11-21T01:22:07;94420.13;;;6.75;87.36
76990;BME280;65924;47.250;11.332;2023-11-21T01:22:39;94421.02;;;6.74;87.40
76990;BME280;65924;47.250;11.332;2023-11-21T01:23:09;94418.03;;;6.74;87.38
76990;BME280;65924;47.250;11.332;2023-11-21T01:23:40;94417.77;;;6.72;87.36
76990;BME280;65924;47.250;11.332;2023-11-21T01:24:11;94420.27;;;6.73;87.34
76990;BME280;65924;47.250;11.332;2023-11-21T01:24:41;94419.95;;;6.73;87.56
76990;BME280;65924;47.250;11.332;2023-11-21T01:25:12;94419.16;;;6.72;87.40
76990;BME280;65924;47.250;11.332;2023-11-21T01:25:44;94416.65;;;6.71;87.39
76990;BME280;65924;47.250;11.332;2023-11-21T01:26:15;94416.48;;;6.71;87.41
76990;BME280;65924;47.250;11.332;2023-11-21T01:26:46;94415.66;;;6.71;87.43
76990;BME280;65924;47.250;11.332;2023-11-21T01:27:17;94414.71;;;6.69;87.40
76990;BME280;65924;47.250;11.332;2023-11-21T01:27:48;94413.73;;;6.69;87.29
76990;BME280;65924;47.250;11.332;2023-11-21T01:28:19;94415.73;;;6.69;87.45
76990;BME280;65924;47.250;11.332;2023-11-21T01:28:52;94417.45;;;6.69;87.34
76990;BME280;65924;47.250;11.332;2023-11-21T01:29:23;94415.77;;;6.69;87.37
76990;BME280;65924;47.250;11.332;2023-11-21T01:29:53;94414.93;;;6.68;87.46
76990;BME280;65924;47.250;11.332;2023-11-21T01:30:25;94417.99;;;6.68;87.37
76990;BME280;65924;47.250;11.332;2023-11-21T01:30:55;94419.19;;;6.68;87.46
76990;BME280;65924;47.250;11.332;2023-11-21T01:31:27;94419.60;;;6.67;87.28
76990;BME280;65924;47.250;11.332;2023-11-21T01:31:59;94417.58;;;6.67;87.46
76990;BME280;65924;47.250;11.332;2023-11-21T01:32:30;94421.64;;;6.66;87.43
76990;BME280;65924;47.250;11.332;2023-11-21T01:33:01;94419.45;;;6.66;87.49
76990;BME280;65924;47.250;11.332;2023-11-21T01:33:31;94420.66;;;6.66;87.43
76990;BME280;65924;47.250;11.332;2023-11-21T01:34:02;94419.67;;;6.65;87.59
76990;BME280;65924;47.250;11.332;2023-11-21T01:34:33;94419.66;;;6.66;87.43
76990;BME280;65924;47.250;11.332;2023-11-21T01:35:05;94422.17;;;6.66;87.42
76990;BME280;65924;47.250;11.332;2023-11-21T01:35:36;94421.70;;;6.65;87.50
76990;BME280;65924;47.250;11.332;2023-11-21T01:36:07;94422.48;;;6.63;87.43
76990;BME280;65924;47.250;11.332;2023-11-21T01:36:38;94421.70;;;6.62;87.56
76990;BME280;65924;47.250;11.332;2023-11-21T01:37:09;94421.23;;;6.62;87.55
76990;BME280;65924;47.250;11.332;2023-11-21T01:37:42;94420.77;;;6.61;87.56
76990;BME280;65924;47.250;11.332;2023-11-21T01:38:12;94419.61;;;6.61;87.55
76990;BME280;65924;47.250;11.332;2023-11-21T01:38:44;94421.29;;;6.61;87.51
76990;BME280;65924;47.250;11.332;2023-11-21T01:39:16;94418.73;;;6.61;87.55
76990;BME280;65924;47.250;11.332;2023-11-21T01:39:54;94420.82;;;6.60;87.53
76990;BME280;65924;47.250;11.332;2023-11-21T01:40:27;94420.34;;;6.60;87.49
76990;BME280;65924;47.250;11.332;2023-11-21T01:40:59;94418.36;;;6.58;87.47
76990;BME280;65924;47.250;11.332;2023-11-21T01:41:31;94416.20;;;6.58;87.44
76990;BME280;65924;47.250;11.332;2023-11-21T01:42:01;94416.71;;;6.58;87.38
76990;BME280;65924;47.250;11.332;2023-11-21T01:42:32;94415.87;;;6.58;87.52
76990;BME280;65924;47.250;11.332;2023-11-21T01:43:03;94417.08;;;6.57;87.45
76990;BME280;65924;47.250;11.332;2023-11-21T01:43:34;94416.45;;;6.56;87.30
76990;BME280;65924;47.250;11.332;2023-11-21T01:44:04;94416.91;;;6.57;87.44
76990;BME280;65924;47.250;11.332;2023-11-21T01:44:38;94415.61;;;6.56;87.43
76990;BME280;65924;47.250;11.332;2023-11-21T01:45:10;94414.92;;;6.56;87.48
76990;BME280;65924;47.250;11.332;2023-11-21T01:45:43;94417.70;;;6.55;87.43
76990;BME280;65924;47.250;11.332;2023-11-21T01:46:15;94419.19;;;6.55;87.51
76990;BME280;65924;47.250;11.332;2023-11-21T01:46:47;94417.36;;;6.55;87.51
76990;BME280;65924;47.250;11.332;2023-11-21T01:47:18;94420.25;;;6.55;87.38
76990;BME280;65924;47.250;11.332;2023-11-21T01:47:49;94420.09;;;6.54;87.45
76990;BME280;65924;47.250;11.332;2023-11-21T01:48:19;94417.21;;;6.55;87.45
76990;BME280;65924;47.250;11.332;2023-11-21T01:48:53;94417.41;;;6.54;87.45
76990;BME280;65924;47.250;11.332;2023-11-21T01:49:24;94416.89;;;6.54;87.61
76990;BME280;65924;47.250;11.332;2023-11-21T01:49:55;94417.56;;;6.54;87.59
76990;BME280;65924;47.250;11.332;2023-11-21T01:50:26;94416.55;;;6.54;87.60
76990;BME280;65924;47.250;11.332;2023-11-21T01:50:58;94418.41;;;6.54;87.65
76990;BME280;65924;47.250;11.332;2023-11-21T01:51:29;94414.55;;;6.54;87.64
76990;BME280;65924;47.250;11.332;2023-11-21T01:51:59;94417.41;;;6.54;87.57
76990;BME280;65924;47.250;11.332;2023-11-21T01:52:32;94416.20;;;6.55;87.68
76990;BME280;65924;47.250;11.332;2023-11-21T01:53:05;94413.48;;;6.55;87.68
76990;BME280;65924;47.250;11.332;2023-11-21T01:53:37;94414.19;;;6.54;87.74
76990;BME280;65924;47.250;11.332;2023-11-21T01:54:07;94413.83;;;6.55;87.73
76990;BME280;65924;47.250;11.332;2023-11-21T01:54:38;94412.99;;;6.54;87.61
76990;BME280;65924;47.250;11.332;2023-11-21T01:55:09;94410.64;;;6.54;87.69
76990;BME280;65924;47.250;11.332;2023-11-21T01:55:41;94413.17;;;6.54;87.72
76990;BME280;65924;47.250;11.332;2023-11-21T01:56:13;94409.61;;;6.54;87.58
76990;BME280;65924;47.250;11.332;2023-11-21T01:56:47;94412.83;;;6.54;87.64
76990;BME280;65924;47.250;11.332;2023-11-21T01:57:19;94410.98;;;6.54;87.65
76990;BME280;65924;47.250;11.332;2023-11-21T01:57:50;94412.01;;;6.54;87.72
76990;BME280;65924;47.250;11.332;2023-11-21T01:58:22;94412.98;;;6.55;87.83
76990;BME280;65924;47.250;11.332;2023-11-21T01:58:52;94409.73;;;6.55;88.04
76990;BME280;65924;47.250;11.332;2023-11-21T01:59:26;94410.52;;;6.57;88.10
76990;BME280;65924;47.250;11.332;2023-11-21T01:59:58;94410.78;;;6.58;88.18
76990;BME280;65924;47.250;11.332;2023-11-21T02:00:30;94411.30;;;6.58;88.08
76990;BME280;65924;47.250;11.332;2023-11-21T02:01:01;94412.80;;;6.58;88.18
76990;BME280;65924;47.250;11.332;2023-11-21T02:01:33;94409.73;;;6.59;88.12
76990;BME280;65924;47.250;11.332;2023-11-21T02:02:05;94410.05;;;6.60;88.17
76990;BME280;65924;47.250;11.332;2023-11-21T02:02:37;94409.02;;;6.60;88.25
76990;BME280;65924;47.250;11.332;2023-11-21T02:03:08;94407.79;;;6.60;88.24
76990;BME280;65924;47.250;11.332;2023-11-21T02:03:40;94408.26;;;6.61;88.13
76990;BME280;65924;47.250;11.332;2023-11-21T02:04:13;94404.89;;;6.61;88.21
76990;BME280;65924;47.250;11.332;2023-11-21T02:04:43;94406.89;;;6.61;88.09
76990;BME280;65924;47.250;11.332;2023-11-21T02:05:16;94408.36;;;6.62;88.10
76990;BME280;65924;47.250;11.332;2023-11-21T02:05:50;94405.86;;;6.62;88.16
76990;BME280;65924;47.250;11.332;2023-11-21T02:06:20;94407.83;;;6.63;88.15
76990;BME280;65924;47.250;11.332;2023-11-21T02:06:52;94407.13;;;6.63;88.15
76990;BME280;65924;47.250;11.332;2023-11-21T02:07:25;94404.56;;;6.64;88.27
76990;BME280;65924;47.250;11.332;2023-11-21T02:07:55;94403.15;;;6.64;88.31
76990;BME280;65924;47.250;11.332;2023-11-21T02:08:26;94404.30;;;6.65;88.26
76990;BME280;65924;47.250;11.332;2023-11-21T02:08:57;94402.91;;;6.66;88.31
76990;BME280;65924;47.250;11.332;2023-11-21T02:09:28;94402.59;;;6.65;88.24
76990;BME280;65924;47.250;11.332;2023-11-21T02:10:00;94402.86;;;6.67;88.17
76990;BME280;65924;47.250;11.332;2023-11-21T02:10:31;94405.40;;;6.67;88.27
76990;BME280;65924;47.250;11.332;2023-11-21T02:11:02;94404.05;;;6.67;88.32
76990;BME280;65924;47.250;11.332;2023-11-21T02:11:33;94401.01;;;6.67;88.12
76990;BME280;65924;47.250;11.332;2023-11-21T02:12:06;94407.38;;;6.68;87.88
76990;BME280;65924;47.250;11.332;2023-11-21T02:12:37;94404.05;;;6.67;87.86
76990;BME280;65924;47.250;11.332;2023-11-21T02:13:09;94406.12;;;6.66;87.85
76990;BME280;65924;47.250;11.332;2023-11-21T02:13:41;94404.09;;;6.66;87.79
76990;BME280;65924;47.250;11.332;2023-11-21T02:14:16;94408.53;;;6.65;87.77
76990;BME280;65924;47.250;11.332;2023-11-21T02:14:49;94405.52;;;6.65;87.82
76990;BME280;65924;47.250;11.332;2023-11-21T02:15:21;94404.73;;;6.64;87.70
76990;BME280;65924;47.250;11.332;2023-11-21T02:15:53;94408.29;;;6.64;87.78
76990;BME280;65924;47.250;11.332;2023-11-21T02:16:24;94408.77;;;6.64;87.82
76990;BME280;65924;47.250;11.332;2023-11-21T02:16:55;94408.11;;;6.64;87.93
76990;BME280;65924;47.250;11.332;2023-11-21T02:17:27;94408.06;;;6.64;87.89
76990;BME280;65924;47.250;11.332;2023-11-21T02:17:58;94408.44;;;6.64;87.90
76990;BME280;65924;47.250;11.332;2023-11-21T02:18:29;94409.27;;;6.64;87.98
76990;BME280;65924;47.250;11.332;2023-11-21T02:19:00;94407.27;;;6.64;87.88
76990;BME280;65924;47.250;11.332;2023-11-21T02:19:31;94409.41;;;6.64;88.02
76990;BME280;65924;47.250;11.332;2023-11-21T02:20:02;94410.27;;;6.65;88.20
76990;BME280;65924;47.250;11.332;2023-11-21T02:20:33;94410.73;;;6.65;88.09
76990;BME280;65924;47.250;11.332;2023-11-21T02:21:05;94411.20;;;6.65;88.12
76990;BME280;65924;47.250;11.332;2023-11-21T02:21:36;94406.23;;;6.65;88.14
76990;BME280;65924;47.250;11.332;2023-11-21T02:22:10;94408.58;;;6.64;87.87
76990;BME280;65924;47.250;11.332;2023-11-21T02:22:43;94410.26;;;6.64;87.96
76990;BME280;65924;47.250;11.332;2023-11-21T02:23:14;94408.23;;;6.65;88.12
76990;BME280;65924;47.250;11.332;2023-11-21T02:23:45;94411.27;;;6.64;88.07
76990;BME280;65924;47.250;11.332;2023-11-21T02:24:23;94406.15;;;6.65;88.04
76990;BME280;65924;47.250;11.332;2023-11-21T02:24:54;94407.01;;;6.65;88.17
76990;BME280;65924;47.250;11.332;2023-11-21T02:25:26;94405.45;;;6.66;88.24
76990;BME280;65924;47.250;11.332;2023-11-21T02:25:59;94409.14;;;6.66;88.14
76990;BME280;65924;47.250;11.332;2023-11-21T02:26:34;94407.96;;;6.66;88.12
76990;BME280;65924;47.250;11.332;2023-11-21T02:27:05;94403.70;;;6.67;88.19
76990;BME280;65924;47.250;11.332;2023-11-21T02:27:36;94404.86;;;6.67;88.22
76990;BME280;65924;47.250;11.332;2023-11-21T02:28:08;94403.83;;;6.68;88.13
76990;BME280;65924;47.250;11.332;2023-11-21T02:28:40;94403.33;;;6.68;88.04
76990;BME280;65924;47.250;11.332;2023-11-21T02:29:10;94403.36;;;6.67;88.07
76990;BME280;65924;47.250;11.332;2023-11-21T02:29:44;94403.67;;;6.64;88.06
76990;BME280;65924;47.250;11.332;2023-11-21T02:30:15;94402.41;;;6.63;88.08
76990;BME280;65924;47.250;11.332;2023-11-21T02:30:46;94404.28;;;6.63;88.02
76990;BME280;65924;47.250;11.332;2023-11-21T02:31:17;94405.33;;;6.62;87.97
76990;BME280;65924;47.250;11.332;2023-11-21T02:31:51;94403.66;;;6.62;88.05
76990;BME280;65924;47.250;11.332;2023-11-21T02:32:25;94405.38;;;6.61;88.01
76990;BME280;65924;47.250;11.332;2023-11-21T02:32:56;94401.29;;;6.59;87.91
76990;BME280;65924;47.250;11.332;2023-11-21T02:33:27;94401.45;;;6.59;87.96
76990;BME280;65924;47.250;11.332;2023-11-21T02:33:57;94398.73;;;6.59;87.89
76990;BME280;65924;47.250;11.332;2023-11-21T02:34:28;94401.47;;;6.58;87.81
76990;BME280;65924;47.250;11.332;2023-11-21T02:34:59;94400.58;;;6.60;87.84
76990;BME280;65924;47.250;11.332;2023-11-21T02:35:33;94399.91;;;6.60;88.03
76990;BME280;65924;47.250;11.332;2023-11-21T02:36:05;94398.34;;;6.60;87.98
76990;BME280;65924;47.250;11.332;2023-11-21T02:36:36;94398.15;;;6.60;88.07
76990;BME280;65924;47.250;11.332;2023-11-21T02:37:07;94396.27;;;6.61;88.07
76990;BME280;65924;47.250;11.332;2023-11-21T02:37:37;94398.30;;;6.61;88.04
76990;BME280;65924;47.250;11.332;2023-11-21T02:38:10;94395.87;;;6.62;87.97
76990;BME280;65924;47.250;11.332;2023-11-21T02:38:41;94393.63;;;6.63;88.05
76990;BME280;65924;47.250;11.332;2023-11-21T02:39:11;94394.56;;;6.62;88.03
76990;BME280;65924;47.250;11.332;2023-11-21T02:39:43;94394.23;;;6.61;87.97
76990;BME280;65924;47.250;11.332;2023-11-21T02:40:14;94393.05;;;6.61;87.96
76990;BME280;65924;47.250;11.332;2023-11-21T02:40:48;94391.52;;;6.62;88.00
76990;BME280;65924;47.250;11.332;2023-11-21T02:41:19;94391.82;;;6.62;87.95
76990;BME280;65924;47.250;11.332;2023-11-21T02:41:49;94390.80;;;6.62;88.01
76990;BME280;65924;47.250;11.332;2023-11-21T02:42:21;94388.34;;;6.61;87.98
76990;BME280;65924;47.250;11.332;2023-11-21T02:42:52;94391.77;;;6.63;88.02
76990;BME280;65924;47.250;11.332;2023-11-21T02:43:22;94394.27;;;6.64;87.77
76990;BME280;65924;47.250;11.332;2023-11-21T02:43:53;94395.14;;;6.63;87.63
76990;BME280;65924;47.250;11.332;2023-11-21T02:44:25;94398.38;;;6.63;87.66
76990;BME280;65924;47.250;11.332;2023-11-21T02:44:56;94398.58;;;6.62;87.48
76990;BME280;65924;47.250;11.332;2023-11-21T02:45:27;94399.30;;;6.61;87.45
76990;BME280;65924;47.250;11.332;2023-11-21T02:45:58;94399.64;;;6.61;87.39